Time;durP1;ratioP1;P1;durP2;ratioP2;P2;SDS_P1;SDS_P2;PMS_P1;PMS_P2;Temp;Humidity;BMP_temperature;BMP_pressure;BME280_temperature;BME280_humidity;BME280_pressure;Samples;Min_cycle;Max_cycle;Signal;HPM_P1;HPM_P2
2023/08/22 00:00:46;;;;;;;1.23;1.13;;;20.00;91.80;20.20;101111.00;;;;4926885;28;121940;-64
2023/08/22 00:03:32;;;;;;;1.88;1.20;;;20.00;91.80;20.30;101105.00;;;;4928611;28;93613;-65
2023/08/22 00:05:58;;;;;;;1.70;1.40;;;20.20;91.90;20.40;101100.00;;;;4931486;28;93287;-65
2023/08/22 00:08:25;;;;;;;1.27;0.98;;;20.20;91.90;20.50;101102.00;;;;4929755;28;98711;-65
2023/08/22 00:10:50;;;;;;;2.03;1.20;;;20.30;91.90;20.50;101099.00;;;;4931264;28;93279;-65
2023/08/22 00:13:16;;;;;;;0.90;0.73;;;20.40;92.00;20.60;101091.00;;;;4934155;28;100507;-65
2023/08/22 00:15:42;;;;;;;1.05;1.02;;;20.40;92.00;20.60;101091.00;;;;4932256;28;94036;-65
2023/08/22 00:18:08;;;;;;;1.27;1.17;;;20.40;92.00;20.60;101088.00;;;;4930870;28;109104;-65
2023/08/22 00:20:36;;;;;;;2.00;1.35;;;20.60;92.10;20.60;101101.00;;;;4934482;28;103744;-66
2023/08/22 00:23:03;;;;;;;1.45;1.35;;;20.40;92.20;20.60;101109.00;;;;4931745;28;93814;-65
2023/08/22 00:25:29;;;;;;;1.00;0.90;;;20.40;92.10;20.50;101102.00;;;;4933356;28;92964;-65
2023/08/22 00:27:55;;;;;;;1.88;1.67;;;20.40;92.20;20.60;101102.00;;;;4930579;28;92807;-64
2023/08/22 00:30:20;;;;;;;1.55;0.90;;;20.40;92.30;20.50;101106.00;;;;4933458;28;122750;-64
2023/08/22 00:32:46;;;;;;;1.45;1.35;;;20.40;92.40;20.50;101104.00;;;;4932860;28;120832;-64
2023/08/22 00:35:13;;;;;;;1.60;1.17;;;20.40;92.60;20.50;101090.00;;;;4937731;28;109838;-64
2023/08/22 00:37:39;;;;;;;1.92;1.58;;;20.30;92.70;20.40;101091.00;;;;4933844;28;105553;-64
2023/08/22 00:40:05;;;;;;;1.80;0.95;;;20.30;92.80;20.40;101081.00;;;;4937597;28;120834;-64
2023/08/22 00:42:31;;;;;;;1.63;1.30;;;20.20;92.90;20.30;101074.00;;;;4935278;28;96297;-64
2023/08/22 00:44:57;;;;;;;0.80;0.73;;;20.20;93.10;20.30;101069.00;;;;4931296;28;110031;-65
2023/08/22 00:47:23;;;;;;;2.47;1.02;;;20.10;93.20;20.20;101063.00;;;;4930875;28;109013;-64
2023/08/22 00:49:49;;;;;;;1.25;0.90;;;20.10;93.30;20.20;101065.00;;;;4932073;28;122247;-65
2023/08/22 00:52:15;;;;;;;1.10;0.95;;;20.10;93.50;20.10;101062.00;;;;4932091;28;122264;-65
2023/08/22 00:54:41;;;;;;;1.98;1.30;;;20.00;93.60;20.10;101057.00;;;;4930336;28;98322;-65
2023/08/22 00:57:07;;;;;;;1.55;1.02;;;20.00;93.80;20.00;101059.00;;;;4933666;28;93099;-64
2023/08/22 00:59:32;;;;;;;1.75;1.17;;;19.90;94.00;19.90;101061.00;;;;4930963;28;123494;-64
2023/08/22 01:01:58;;;;;;;1.58;1.45;;;19.80;94.20;19.80;101051.00;;;;4929901;28;93540;-64
2023/08/22 01:04:25;;;;;;;5.15;1.38;;;19.70;94.40;19.70;101049.00;;;;4929593;28;92521;-64
2023/08/22 01:07:15;;;;;;;2.00;1.20;;;19.60;94.60;19.60;101039.00;;;;4933152;28;94169;-64
2023/08/22 01:09:53;;;;;;;1.60;1.50;;;19.50;95.10;19.50;101048.00;;;;4945937;28;114105;-64
2023/08/22 01:12:40;;;;;;;1.77;1.27;;;19.40;95.00;19.40;101044.00;;;;4945468;28;94144;-64
2023/08/22 01:15:24;;;;;;;1.85;1.60;;;19.30;95.10;19.40;101045.00;;;;4929929;28;94478;-64
2023/08/22 01:17:53;;;;;;;2.13;1.58;;;19.30;95.40;19.30;101049.00;;;;4937272;28;93921;-64
2023/08/22 01:20:18;;;;;;;2.28;1.42;;;19.20;95.40;19.30;101048.00;;;;4934075;28;93563;-64
2023/08/22 01:22:44;;;;;;;2.90;1.45;;;19.20;95.60;19.30;101045.00;;;;4929370;28;122485;-64
2023/08/22 01:25:10;;;;;;;2.05;1.40;;;19.20;96.10;19.30;101036.00;;;;4931657;28;111167;-63
2023/08/22 01:27:49;;;;;;;1.48;1.17;;;19.20;95.90;19.20;101041.00;;;;4932559;28;92876;-66
2023/08/22 01:30:42;;;;;;;0.93;0.93;;;19.10;96.00;19.10;101031.00;;;;4946306;28;93122;-65
2023/08/22 01:33:24;;;;;;;2.08;1.25;;;19.10;96.10;19.20;101031.00;;;;4929021;28;105816;-65
2023/08/22 01:35:54;;;;;;;1.35;1.25;;;19.10;96.20;19.20;101020.00;;;;4930862;28;92993;-63
2023/08/22 01:38:23;;;;;;;1.60;1.50;;;19.10;96.30;19.20;101022.00;;;;4945311;28;99992;-65
2023/08/22 01:40:50;;;;;;;1.35;1.25;;;19.10;96.40;19.20;101014.00;;;;4930239;28;93339;-64
2023/08/22 01:43:18;;;;;;;3.63;1.27;;;19.10;96.50;19.20;101012.00;;;;4931473;28;111897;-63
2023/08/22 01:45:44;;;;;;;1.30;1.20;;;19.10;96.60;19.20;101003.00;;;;4927997;28;93520;-64
2023/08/22 01:48:10;;;;;;;1.63;1.40;;;19.10;96.70;19.20;101003.00;;;;4932908;28;96974;-64
2023/08/22 01:50:35;;;;;;;1.33;1.10;;;19.10;96.80;19.30;101006.00;;;;4934328;28;122768;-64
2023/08/22 01:53:01;;;;;;;3.03;1.63;;;19.10;96.90;19.30;100999.00;;;;4929835;28;120483;-64
2023/08/22 01:55:27;;;;;;;2.03;1.35;;;19.10;97.00;19.30;100997.00;;;;4931774;28;92091;-64
2023/08/22 01:57:52;;;;;;;2.05;1.85;;;19.20;97.10;19.30;101003.00;;;;4929076;28;108719;-64
2023/08/22 02:00:18;;;;;;;1.67;1.40;;;19.20;97.10;19.30;101001.00;;;;4930168;28;122011;-64
2023/08/22 02:02:44;;;;;;;5.40;1.92;;;19.20;97.20;19.30;100998.00;;;;4930181;28;113396;-64
2023/08/22 02:05:10;;;;;;;1.35;1.17;;;19.20;97.40;19.30;101002.00;;;;4929864;28;110084;-64
2023/08/22 02:07:35;;;;;;;14.35;2.33;;;19.20;97.40;19.30;100992.00;;;;4929219;28;96721;-64
2023/08/22 02:10:04;;;;;;;1.30;1.17;;;19.20;97.50;19.30;100989.00;;;;4932040;28;123142;-64
2023/08/22 02:12:30;;;;;;;2.42;1.67;;;19.10;97.60;19.20;100991.00;;;;4929270;28;94547;-65
2023/08/22 02:14:56;;;;;;;1.48;1.35;;;19.10;97.60;19.20;100990.00;;;;4930570;28;99604;-64
2023/08/22 02:17:22;;;;;;;1.35;1.25;;;19.10;97.80;19.20;100998.00;;;;4927617;28;108938;-65
2023/08/22 02:19:47;;;;;;;1.17;1.08;;;19.10;97.90;19.20;100997.00;;;;4930498;28;92544;-64
2023/08/22 02:22:13;;;;;;;1.23;1.02;;;19.10;97.90;19.20;101004.00;;;;4929508;28;121459;-64
2023/08/22 02:24:39;;;;;;;1.10;0.88;;;19.10;98.00;19.10;101009.00;;;;4927243;28;110116;-64
2023/08/22 02:27:04;;;;;;;0.95;0.90;;;19.00;98.10;19.20;101007.00;;;;4928538;28;108844;-65
2023/08/22 02:29:31;;;;;;;2.05;1.10;;;19.10;98.20;19.20;100998.00;;;;4929120;28;94026;-64
2023/08/22 02:31:57;;;;;;;1.35;1.00;;;19.00;98.30;19.10;100988.00;;;;4929839;28;93975;-64
2023/08/22 02:34:25;;;;;;;1.30;1.20;;;19.10;98.50;19.10;100989.00;;;;4931335;28;93495;-65
2023/08/22 02:36:50;;;;;;;0.85;0.85;;;19.00;98.70;19.10;100990.00;;;;4930570;28;98953;-64
2023/08/22 02:39:16;;;;;;;1.83;1.52;;;19.00;98.90;19.00;100986.00;;;;4930120;28;93478;-65
2023/08/22 02:41:42;;;;;;;2.67;1.30;;;19.00;99.20;19.00;100982.00;;;;4931648;28;103090;-65
2023/08/22 02:44:08;;;;;;;1.42;1.25;;;18.90;99.40;18.90;100988.00;;;;4929217;28;92403;-64
2023/08/22 02:46:34;;;;;;;1.48;1.10;;;18.80;99.60;18.80;100981.00;;;;4929659;28;92744;-64
2023/08/22 02:49:00;;;;;;;2.45;1.70;;;18.80;99.90;18.80;100977.00;;;;4930275;28;93638;-64
2023/08/22 02:51:32;;;;;;;1.88;1.33;;;18.70;99.90;18.70;100964.00;;;;4929458;28;94009;-65
2023/08/22 02:54:01;;;;;;;1.05;1.05;;;18.60;99.90;18.60;100960.00;;;;4930944;28;93186;-64
2023/08/22 02:56:27;;;;;;;3.53;1.58;;;18.60;99.90;18.50;100957.00;;;;4931247;28;93094;-63
2023/08/22 02:58:52;;;;;;;2.35;1.48;;;18.50;99.90;18.50;100943.00;;;;4929788;28;123419;-63
2023/08/22 03:01:18;;;;;;;1.63;1.20;;;18.40;99.90;18.40;100957.00;;;;4930744;28;103607;-63
2023/08/22 03:03:49;;;;;;;2.78;1.70;;;18.30;99.90;18.40;100954.00;;;;4928603;28;93569;-66
2023/08/22 03:06:15;;;;;;;1.42;0.93;;;18.30;99.90;18.40;100956.00;;;;4934841;28;92875;-63
2023/08/22 03:08:41;;;;;;;2.08;1.45;;;18.30;99.90;18.30;100957.00;;;;4929703;28;92843;-64
2023/08/22 03:11:06;;;;;;;2.05;1.35;;;18.20;99.90;18.30;100958.00;;;;4929815;28;120813;-64
2023/08/22 03:13:32;;;;;;;1.75;1.65;;;18.20;99.90;18.30;100956.00;;;;4928469;28;110918;-64
2023/08/22 03:15:58;;;;;;;1.75;1.65;;;18.20;99.90;18.30;100959.00;;;;4930976;28;108274;-63
2023/08/22 03:18:25;;;;;;;1.27;1.00;;;18.20;99.90;18.30;100957.00;;;;4929844;28;93790;-63
2023/08/22 03:20:56;;;;;;;6.85;1.77;;;18.20;99.90;18.40;100961.00;;;;4930262;28;93794;-65
2023/08/22 03:23:23;;;;;;;1.48;1.38;;;18.20;99.90;18.40;100965.00;;;;4927881;28;92803;-64
2023/08/22 03:25:57;;;;;;;10.80;1.63;;;18.30;99.90;18.40;100956.00;;;;4928085;28;92863;-65
2023/08/22 03:28:23;;;;;;;1.90;1.20;;;18.30;99.90;18.50;100958.00;;;;4926585;28;93319;-65
2023/08/22 03:30:57;;;;;;;1.33;1.23;;;18.30;99.90;18.50;100955.00;;;;4931053;28;93282;-65
2023/08/22 03:33:24;;;;;;;2.88;1.67;;;18.40;99.90;18.60;100956.00;;;;4930752;28;98280;-66
2023/08/22 03:35:51;;;;;;;1.92;0.90;;;18.40;99.90;18.60;100956.00;;;;4931287;28;93051;-65
2023/08/22 03:38:17;;;;;;;2.10;1.13;;;18.40;99.90;18.60;100955.00;;;;4942048;28;93160;-66
2023/08/22 03:40:43;;;;;;;3.05;0.95;;;18.50;99.90;18.70;100954.00;;;;4927477;28;112378;-64
2023/08/22 03:43:09;;;;;;;1.95;1.45;;;18.50;99.90;18.70;100945.00;;;;4930337;28;93322;-66
2023/08/22 03:45:34;;;;;;;2.55;1.70;;;18.60;99.90;18.70;100938.00;;;;4931661;28;107587;-65
2023/08/22 03:48:03;;;;;;;1.55;0.95;;;18.60;99.90;18.70;100938.00;;;;4933766;28;123559;-64
2023/08/22 03:50:30;;;;;;;1.63;1.33;;;18.60;99.90;18.70;100942.00;;;;4934376;28;93268;-64
2023/08/22 03:52:56;;;;;;;1.88;1.50;;;18.60;99.90;18.70;100945.00;;;;4932835;28;92868;-64
2023/08/22 03:55:22;;;;;;;2.00;1.63;;;18.60;99.90;18.70;100938.00;;;;4931291;28;108027;-64
2023/08/22 03:57:48;;;;;;;1.98;0.93;;;18.60;99.90;18.70;100928.00;;;;4933504;28;121929;-64
2023/08/22 04:00:14;;;;;;;2.72;1.38;;;18.60;99.90;18.70;100935.00;;;;4900841;28;121640;-64
2023/08/22 04:02:42;;;;;;;2.42;0.85;;;18.50;99.90;18.60;100922.00;;;;4931081;28;99701;-64
2023/08/22 04:05:08;;;;;;;1.33;0.98;;;18.50;99.90;18.60;100921.00;;;;4933113;28;108868;-64
2023/08/22 04:07:34;;;;;;;2.30;1.45;;;18.50;99.90;18.60;100917.00;;;;4937530;28;122963;-64
2023/08/22 04:09:59;;;;;;;3.30;1.40;;;18.50;99.90;18.60;100926.00;;;;4938131;28;123275;-64
2023/08/22 04:12:25;;;;;;;6.15;1.50;;;18.50;99.90;18.60;100918.00;;;;4935389;28;109411;-63
2023/08/22 04:14:51;;;;;;;1.70;1.35;;;18.50;99.90;18.60;100918.00;;;;4934203;28;108841;-64
2023/08/22 04:17:16;;;;;;;1.55;1.20;;;18.50;99.90;18.60;100920.00;;;;4934330;28;93190;-63
2023/08/22 04:19:42;;;;;;;5.32;2.03;;;18.50;99.90;18.60;100917.00;;;;4933840;28;122408;-66
2023/08/22 04:22:08;;;;;;;1.23;1.13;;;18.50;99.90;18.60;100910.00;;;;4933889;28;109329;-64
2023/08/22 04:24:33;;;;;;;1.20;1.10;;;18.50;99.90;18.70;100912.00;;;;4941330;28;92894;-64
2023/08/22 04:26:59;;;;;;;1.42;1.17;;;18.50;99.90;18.70;100900.00;;;;4933478;28;121260;-63
2023/08/22 04:29:25;;;;;;;1.60;1.00;;;18.60;99.90;18.70;100903.00;;;;4932057;28;123545;-64
2023/08/22 04:31:50;;;;;;;1.55;1.15;;;18.50;99.90;18.70;100911.00;;;;4932119;28;108703;-64
2023/08/22 04:34:16;;;;;;;1.63;1.30;;;18.60;99.90;18.80;100910.00;;;;4929161;28;109614;-64
2023/08/22 04:36:42;;;;;;;1.70;1.13;;;18.60;99.90;18.80;100901.00;;;;4931189;28;121868;-64
2023/08/22 04:39:08;;;;;;;1.85;1.17;;;18.60;99.90;18.90;100905.00;;;;4931763;28;122077;-63
2023/08/22 04:41:33;;;;;;;2.80;1.35;;;18.70;99.90;18.90;100892.00;;;;4946586;28;92761;-64
2023/08/22 04:43:59;;;;;;;3.25;1.95;;;18.70;99.90;18.90;100902.00;;;;4930928;28;94059;-64
2023/08/22 04:46:24;;;;;;;2.08;1.85;;;18.70;99.90;18.90;100898.00;;;;4932892;28;121385;-64
2023/08/22 04:48:50;;;;;;;2.58;1.50;;;18.80;99.90;18.90;100901.00;;;;4932478;28;104868;-65
2023/08/22 04:51:16;;;;;;;2.15;1.67;;;18.80;99.90;19.00;100896.00;;;;4932206;28;93139;-64
2023/08/22 04:53:42;;;;;;;2.90;1.27;;;18.80;99.90;19.00;100893.00;;;;4928390;28;109137;-64
2023/08/22 04:56:08;;;;;;;1.90;1.15;;;18.80;99.90;19.00;100899.00;;;;4931625;28;93940;-64
2023/08/22 04:58:33;;;;;;;2.42;0.95;;;18.90;99.90;19.10;100895.00;;;;4929084;28;92917;-63
2023/08/22 05:00:59;;;;;;;2.83;1.70;;;18.90;99.90;19.10;100890.00;;;;4932757;28;109695;-63
2023/08/22 05:03:25;;;;;;;2.55;1.80;;;18.90;99.90;19.20;100899.00;;;;4936123;28;93089;-64
2023/08/22 05:05:50;;;;;;;2.72;2.53;;;19.00;99.90;19.30;100898.00;;;;4935579;28;123788;-64
2023/08/22 05:08:17;;;;;;;6.90;2.00;;;19.10;99.90;19.30;100895.00;;;;4932084;28;93026;-64
2023/08/22 05:10:43;;;;;;;2.58;1.85;;;19.10;99.90;19.40;100896.00;;;;4931662;28;92494;-64
2023/08/22 05:13:09;;;;;;;2.88;1.80;;;19.20;99.90;19.50;100906.00;;;;4929506;28;109428;-64
2023/08/22 05:15:34;;;;;;;1.77;1.63;;;19.30;99.90;19.60;100895.00;;;;4933668;28;106122;-65
2023/08/22 05:18:00;;;;;;;1.85;1.75;;;19.40;99.90;19.70;100897.00;;;;4933400;28;121955;-64
2023/08/22 05:20:26;;;;;;;1.50;1.40;;;19.40;99.90;19.70;100898.00;;;;4933192;28;111269;-64
2023/08/22 05:22:51;;;;;;;1.73;1.60;;;19.50;99.90;19.80;100888.00;;;;4932111;28;107939;-65
2023/08/22 05:25:17;;;;;;;5.38;2.03;;;19.60;99.90;19.90;100887.00;;;;4932006;28;122963;-64
2023/08/22 05:27:43;;;;;;;2.55;1.80;;;19.70;99.90;19.90;100893.00;;;;4930425;28;111196;-64
2023/08/22 05:30:09;;;;;;;2.88;1.63;;;19.70;99.90;20.00;100888.00;;;;4928964;28;110759;-64
2023/08/22 05:32:35;;;;;;;2.85;1.92;;;19.80;99.90;20.10;100894.00;;;;4929770;28;99626;-64
2023/08/22 05:35:01;;;;;;;4.00;1.73;;;19.90;99.90;20.30;100889.00;;;;4930492;28;92332;-65
2023/08/22 05:37:26;;;;;;;3.72;1.60;;;20.00;99.90;20.40;100891.00;;;;4931140;28;92968;-65
2023/08/22 05:39:52;;;;;;;2.28;2.08;;;20.20;99.90;20.50;100895.00;;;;4931052;28;92794;-65
2023/08/22 05:42:17;;;;;;;2.45;1.45;;;20.30;99.90;20.60;100902.00;;;;4932539;28;93838;-64
2023/08/22 05:44:43;;;;;;;2.45;1.88;;;20.40;99.90;20.70;100895.00;;;;4930725;28;123405;-65
2023/08/22 05:47:09;;;;;;;6.72;3.13;;;20.50;99.90;20.70;100899.00;;;;4930413;28;122646;-65
2023/08/22 05:49:35;;;;;;;2.15;1.65;;;20.50;99.90;20.70;100895.00;;;;4931245;28;109959;-65
2023/08/22 05:52:05;;;;;;;2.25;1.90;;;20.60;99.90;20.80;100899.00;;;;4926798;28;102200;-65
2023/08/22 05:54:32;;;;;;;3.90;2.47;;;20.60;99.90;21.00;100894.00;;;;4930443;28;93959;-65
2023/08/22 05:56:58;;;;;;;2.30;2.08;;;20.70;99.90;21.20;100894.00;;;;4929778;28;101698;-66
2023/08/22 05:59:24;;;;;;;2.72;2.10;;;20.90;99.90;21.40;100884.00;;;;4933004;28;92017;-65
2023/08/22 06:01:49;;;;;;;2.95;2.10;;;21.10;99.90;21.50;100882.00;;;;4931433;28;99452;-64
2023/08/22 06:04:20;;;;;;;2.17;1.80;;;21.30;99.90;21.70;100881.00;;;;4928420;28;123837;-65
2023/08/22 06:06:46;;;;;;;2.10;1.58;;;21.40;99.90;21.90;100881.00;;;;4931357;28;93933;-65
2023/08/22 06:09:12;;;;;;;2.83;2.22;;;21.60;99.90;22.20;100884.00;;;;4929722;28;93033;-64
2023/08/22 06:11:38;;;;;;;4.05;2.88;;;21.80;99.90;22.40;100881.00;;;;4928629;28;93317;-66
2023/08/22 06:14:04;;;;;;;3.15;2.28;;;22.10;99.90;22.60;100879.00;;;;4928492;28;95459;-65
2023/08/22 06:16:30;;;;;;;3.28;2.83;;;22.30;99.90;22.80;100871.00;;;;4930500;28;92850;-66
2023/08/22 06:18:56;;;;;;;2.20;2.00;;;22.50;99.70;22.90;100873.00;;;;4932856;28;110593;-64
2023/08/22 06:21:21;;;;;;;3.50;2.72;;;22.60;99.40;23.10;100867.00;;;;4929979;28;108942;-64
2023/08/22 06:23:47;;;;;;;6.30;2.63;;;22.80;99.20;23.30;100876.00;;;;4929302;28;122527;-65
2023/08/22 06:26:14;;;;;;;2.65;2.25;;;23.00;99.00;23.50;100865.00;;;;4928120;28;120441;-66
2023/08/22 06:28:39;;;;;;;4.50;2.78;;;23.20;98.60;23.70;100857.00;;;;4927921;28;93014;-66
2023/08/22 06:31:06;;;;;;;3.65;2.28;;;23.40;98.30;23.90;100859.00;;;;4928207;28;109001;-65
2023/08/22 06:33:31;;;;;;;4.07;3.17;;;23.60;97.90;24.10;100867.00;;;;4934192;28;93164;-65
2023/08/22 06:35:57;;;;;;;3.40;2.35;;;23.80;97.40;24.20;100865.00;;;;4931070;28;121252;-64
2023/08/22 06:38:25;;;;;;;3.53;2.50;;;23.90;96.90;24.30;100862.00;;;;4930660;28;110172;-64
2023/08/22 06:40:50;;;;;;;4.30;2.95;;;24.00;96.80;24.40;100855.00;;;;4927343;28;94262;-63
2023/08/22 06:43:16;;;;;;;2.92;2.60;;;24.10;96.50;24.50;100861.00;;;;4929079;28;122324;-65
2023/08/22 06:45:42;;;;;;;4.82;3.35;;;24.20;96.30;24.60;100861.00;;;;4929159;28;121940;-63
2023/08/22 06:48:10;;;;;;;4.75;2.92;;;24.30;96.20;24.70;100856.00;;;;4930098;28;92298;-65
2023/08/22 06:50:36;;;;;;;4.40;2.58;;;24.40;96.00;24.80;100854.00;;;;4926161;28;108380;-65
2023/08/22 06:53:02;;;;;;;4.10;2.45;;;24.50;95.90;25.00;100863.00;;;;4929001;28;122333;-65
2023/08/22 06:55:27;;;;;;;3.53;2.40;;;24.60;95.70;25.10;100858.00;;;;4928733;28;94026;-64
2023/08/22 06:57:53;;;;;;;2.20;2.10;;;24.80;95.30;25.30;100853.00;;;;4928786;28;92791;-64
2023/08/22 07:00:19;;;;;;;3.13;2.67;;;25.00;95.10;25.40;100851.00;;;;4930815;28;109423;-64
2023/08/22 07:02:46;;;;;;;3.60;3.28;;;25.00;94.90;25.60;100847.00;;;;4929998;28;93528;-65
2023/08/22 07:05:14;;;;;;;3.95;2.53;;;25.20;95.00;25.90;100856.00;;;;4928701;28;120558;-64
2023/08/22 07:07:40;;;;;;;3.78;2.80;;;25.50;94.90;26.20;100861.00;;;;4930092;28;93037;-64
2023/08/22 07:10:09;;;;;;;8.15;3.40;;;25.80;94.30;26.50;100859.00;;;;4929386;28;93459;-65
2023/08/22 07:12:36;;;;;;;2.53;2.03;;;26.10;94.10;26.80;100860.00;;;;4929685;28;110961;-64
2023/08/22 07:15:05;;;;;;;3.10;2.67;;;26.40;93.50;27.10;100844.00;;;;4932488;28;92982;-64
2023/08/22 07:17:31;;;;;;;3.45;2.40;;;26.70;92.60;27.30;100852.00;;;;4929886;28;95278;-66
2023/08/22 07:19:57;;;;;;;4.07;3.33;;;26.90;92.30;27.50;100852.00;;;;4927537;28;109156;-64
2023/08/22 07:22:23;;;;;;;3.90;2.78;;;27.10;92.30;27.90;100839.00;;;;4927914;28;121750;-65
2023/08/22 07:24:49;;;;;;;6.07;2.60;;;27.50;92.00;28.20;100843.00;;;;4929035;28;93783;-64
2023/08/22 07:27:14;;;;;;;13.98;2.42;;;27.70;91.20;28.40;100838.00;;;;4928241;28;109577;-65
2023/08/22 07:29:40;;;;;;;2.83;2.50;;;28.00;90.70;28.60;100846.00;;;;4931154;28;92951;-64
2023/08/22 07:32:09;;;;;;;3.92;2.58;;;28.20;90.50;28.90;100845.00;;;;4929558;28;92817;-64
2023/08/22 07:34:35;;;;;;;2.63;2.20;;;28.50;90.20;29.30;100836.00;;;;4930998;28;107401;-64
2023/08/22 07:37:01;;;;;;;3.42;2.33;;;28.80;89.50;29.60;100835.00;;;;4931360;28;92315;-65
2023/08/22 07:39:27;;;;;;;3.60;2.60;;;29.20;88.80;29.90;100838.00;;;;4930623;28;92830;-65
2023/08/22 07:41:54;;;;;;;3.75;3.03;;;29.50;87.50;30.20;100849.00;;;;4930249;28;94132;-65
2023/08/22 07:44:20;;;;;;;2.58;2.10;;;29.80;85.40;30.40;100836.00;;;;4928004;28;108823;-65
2023/08/22 07:46:45;;;;;;;3.22;2.33;;;30.00;84.90;30.70;100838.00;;;;4928392;28;109386;-65
2023/08/22 07:49:11;;;;;;;3.30;2.63;;;30.20;84.30;30.90;100833.00;;;;4924744;28;109395;-66
2023/08/22 07:51:37;;;;;;;3.15;2.60;;;30.50;82.50;31.10;100832.00;;;;4928555;28;122319;-65
2023/08/22 07:54:03;;;;;;;2.88;2.47;;;30.70;81.50;31.30;100844.00;;;;4928314;28;92864;-65
2023/08/22 07:56:29;;;;;;;7.53;2.85;;;30.90;80.70;31.50;100848.00;;;;4929191;28;101599;-65
2023/08/22 07:58:55;;;;;;;3.47;2.40;;;31.10;79.50;31.80;100845.00;;;;4926363;28;93143;-65
2023/08/22 08:01:21;;;;;;;5.00;2.58;;;31.40;78.70;32.00;100844.00;;;;4927966;28;92613;-65
2023/08/22 08:03:46;;;;;;;2.65;2.42;;;31.60;78.10;32.30;100845.00;;;;4929299;28;121898;-65
2023/08/22 08:06:15;;;;;;;5.18;2.40;;;31.90;77.20;32.50;100843.00;;;;4929328;28;110106;-66
2023/08/22 08:08:40;;;;;;;2.70;2.15;;;32.10;76.40;32.70;100845.00;;;;4928740;28;98723;-65
2023/08/22 08:11:06;;;;;;;3.95;3.17;;;32.30;75.00;32.90;100845.00;;;;4927377;28;122314;-65
2023/08/22 08:13:32;;;;;;;3.85;2.35;;;32.50;73.00;32.90;100844.00;;;;4926199;28;122260;-67
2023/08/22 08:15:57;;;;;;;2.28;2.08;;;32.50;70.90;32.90;100837.00;;;;4929999;28;109892;-67
2023/08/22 08:18:23;;;;;;;3.20;2.10;;;32.60;71.00;33.10;100844.00;;;;4929165;28;93064;-67
2023/08/22 08:20:49;;;;;;;6.32;2.80;;;32.70;71.10;33.30;100850.00;;;;4931944;28;122880;-68
2023/08/22 08:23:14;;;;;;;3.35;2.22;;;32.90;70.90;33.60;100838.00;;;;4929911;28;94573;-67
2023/08/22 08:25:40;;;;;;;3.47;2.05;;;33.20;70.10;33.90;100843.00;;;;4931949;28;110296;-67
2023/08/22 08:28:06;;;;;;;3.13;1.98;;;33.50;68.10;34.00;100835.00;;;;4944963;28;92914;-67
2023/08/22 08:30:33;;;;;;;7.07;1.92;;;33.60;67.40;34.10;100834.00;;;;4927450;28;94295;-67
2023/08/22 08:33:01;;;;;;;4.15;2.30;;;33.70;66.50;34.10;100835.00;;;;4930929;28;93944;-67
2023/08/22 08:35:27;;;;;;;3.60;2.72;;;33.80;66.00;34.20;100829.00;;;;4932031;28;92826;-68
2023/08/22 08:37:53;;;;;;;2.55;2.15;;;33.80;65.70;34.30;100824.00;;;;4933639;28;108483;-68
2023/08/22 08:40:19;;;;;;;5.28;2.92;;;33.80;65.00;34.40;100831.00;;;;4933259;28;93462;-67
2023/08/22 08:42:45;;;;;;;3.92;2.60;;;34.00;63.70;34.40;100827.00;;;;4930285;28;109834;-68
2023/08/22 08:45:15;;;;;;;2.88;2.03;;;34.00;63.40;34.40;100829.00;;;;4934182;28;111481;-67
2023/08/22 08:47:42;;;;;;;4.78;2.75;;;34.00;62.70;34.50;100823.00;;;;4934557;28;93184;-68
2023/08/22 08:50:09;;;;;;;4.47;2.03;;;34.10;63.00;34.60;100830.00;;;;4931497;28;116302;-69
2023/08/22 08:52:35;;;;;;;2.83;2.22;;;34.20;62.80;34.80;100829.00;;;;4931601;28;93024;-68
2023/08/22 08:55:04;;;;;;;6.80;2.78;;;34.40;62.80;35.00;100824.00;;;;4930015;28;110637;-68
2023/08/22 08:57:31;;;;;;;2.83;2.08;;;34.50;62.20;35.30;100813.00;;;;4928907;28;93982;-69
2023/08/22 09:00:00;;;;;;;2.90;2.28;;;34.80;61.80;35.50;100825.00;;;;4930078;28;93316;-68
2023/08/22 09:02:31;;;;;;;3.17;2.75;;;35.00;61.20;35.60;100815.00;;;;4931418;28;94066;-68
2023/08/22 09:04:56;;;;;;;2.35;1.80;;;35.10;60.70;35.70;100823.00;;;;4945832;28;92917;-69
2023/08/22 09:07:23;;;;;;;3.20;2.42;;;35.20;60.30;35.90;100828.00;;;;4928928;28;109144;-69
2023/08/22 09:09:49;;;;;;;3.50;2.13;;;35.50;59.60;36.00;100832.00;;;;4931615;28;98525;-68
2023/08/22 09:12:15;;;;;;;3.10;2.05;;;35.50;59.20;36.10;100832.00;;;;4930901;28;122261;-68
2023/08/22 09:14:46;;;;;;;2.55;2.22;;;35.60;58.70;36.10;100829.00;;;;4933410;28;92276;-68
2023/08/22 09:17:18;;;;;;;2.88;2.53;;;35.70;58.00;36.10;100832.00;;;;4930037;28;92989;-68
2023/08/22 09:19:44;;;;;;;2.53;2.33;;;35.70;57.40;36.00;100832.00;;;;4929662;28;120700;-68
2023/08/22 09:22:14;;;;;;;4.22;2.92;;;35.70;57.50;36.00;100819.00;;;;4925950;28;121661;-67
2023/08/22 09:24:51;;;;;;;2.88;2.42;;;35.60;58.00;36.10;100831.00;;;;4932014;28;92988;-70
2023/08/22 09:27:27;;;;;;;2.95;2.42;;;35.60;57.50;36.30;100819.00;;;;4930136;28;93117;-69
2023/08/22 09:29:58;;;;;;;2.20;1.98;;;35.80;57.20;36.40;100812.00;;;;4931427;28;94896;-69
2023/08/22 09:32:24;;;;;;;4.00;2.78;;;35.90;56.80;36.50;100811.00;;;;4933177;28;109879;-68
2023/08/22 09:34:58;;;;;;;5.35;2.22;;;36.00;56.20;36.40;100809.00;;;;4931738;28;110608;-67
2023/08/22 09:37:35;;;;;;;3.67;2.60;;;36.00;55.00;36.30;100809.00;;;;4932627;28;92926;-69
2023/08/22 09:40:07;;;;;;;3.10;2.13;;;35.90;55.40;36.40;100803.00;;;;4930107;28;114524;-69
2023/08/22 09:42:37;;;;;;;2.72;2.22;;;36.00;55.40;36.70;100798.00;;;;4931351;28;93128;-70
2023/08/22 09:45:05;;;;;;;3.95;2.45;;;36.10;55.40;37.00;100806.00;;;;4929404;28;101376;-68
2023/08/22 09:47:31;;;;;;;3.17;2.28;;;36.30;55.70;37.30;100803.00;;;;4944549;28;95722;-69
2023/08/22 09:50:05;;;;;;;3.60;2.25;;;36.60;54.90;37.50;100797.00;;;;4928918;28;121364;-69
2023/08/22 09:52:31;;;;;;;4.13;2.20;;;36.90;54.10;37.60;100798.00;;;;4932410;28;93594;-69
2023/08/22 09:54:58;;;;;;;6.05;2.53;;;37.00;53.40;37.70;100797.00;;;;4927436;28;102889;-69
2023/08/22 09:57:27;;;;;;;5.28;2.13;;;37.10;53.40;37.80;100805.00;;;;4931673;28;102513;-67
2023/08/22 09:59:53;;;;;;;4.20;1.90;;;37.10;52.90;38.00;100801.00;;;;4931138;28;94364;-67
2023/08/22 10:02:19;;;;;;;6.35;2.50;;;37.30;52.70;38.20;100798.00;;;;4932781;28;93044;-67
2023/08/22 10:04:48;;;;;;;2.72;1.83;;;37.50;51.80;38.30;100792.00;;;;4931830;28;93064;-69
2023/08/22 10:07:14;;;;;;;3.50;1.98;;;37.60;51.40;38.40;100797.00;;;;4930339;28;93974;-69
2023/08/22 10:09:42;;;;;;;3.60;2.30;;;37.70;50.90;38.60;100797.00;;;;4927371;28;123004;-69
2023/08/22 10:12:11;;;;;;;2.78;1.85;;;37.80;50.70;38.60;100798.00;;;;4925960;28;93986;-69
2023/08/22 10:14:51;;;;;;;2.55;2.17;;;37.90;50.20;38.70;100794.00;;;;4946249;28;93081;-66
2023/08/22 10:17:16;;;;;;;2.55;1.88;;;38.00;50.20;38.80;100792.00;;;;4930467;28;97093;-67
2023/08/22 10:19:43;;;;;;;2.38;1.55;;;38.00;50.00;39.00;100797.00;;;;4930130;28;123697;-69
2023/08/22 10:22:14;;;;;;;3.88;2.90;;;38.20;49.90;39.20;100797.00;;;;4908371;28;94243;-68
2023/08/22 10:24:41;;;;;;;4.45;2.05;;;38.40;49.50;39.40;100792.00;;;;4930255;28;93243;-68
2023/08/22 10:27:16;;;;;;;4.40;2.70;;;38.50;49.00;39.40;100797.00;;;;4928604;28;93160;-67
2023/08/22 10:30:12;;;;;;;2.70;2.25;;;38.60;48.70;39.60;100792.00;;;;4929350;28;92982;-68
2023/08/22 10:32:37;;;;;;;2.58;2.22;;;38.70;48.50;39.80;100786.00;;;;4931490;28;92907;-68
2023/08/22 10:35:07;;;;;;;3.53;2.28;;;38.90;48.00;40.10;100788.00;;;;4929776;28;92975;-67
2023/08/22 10:37:32;;;;;;;5.53;2.45;;;39.10;47.30;40.20;100793.00;;;;4929516;28;93870;-68
2023/08/22 10:40:03;;;;;;;2.58;2.28;;;39.30;47.00;40.40;100797.00;;;;4931186;28;93221;-70
2023/08/22 10:42:38;;;;;;;4.10;2.38;;;39.50;47.00;40.50;100801.00;;;;4931490;28;93630;-69